Time;durP1;ratioP1;P1;durP2;ratioP2;P2;SDS_P1;SDS_P2;PMS_P1;PMS_P2;Temp;Humidity;BMP_temperature;BMP_pressure;BME280_temperature;BME280_humidity;BME280_pressure;Samples;Min_cycle;Max_cycle;Signal;HPM_P1;HPM_P2
2021/10/03 00:00:49;;;;;;;0.10;0.10;;;;;;;;;;5069946;28;20203;-65
2021/10/03 00:03:21;;;;;;;0.10;0.07;;;;;;;;;;5069615;28;20323;-64
2021/10/03 00:05:50;;;;;;;0.20;0.20;;;;;;;;;;5068336;28;20711;-64
2021/10/03 00:08:18;;;;;;;0.00;0.00;;;;;;;;;;5068035;28;20559;-66
2021/10/03 00:10:46;;;;;;;0.00;0.00;;;;;;;;;;5068018;28;20210;-65
2021/10/03 00:13:14;;;;;;;0.00;0.00;;;;;;;;;;5069837;28;20575;-65
2021/10/03 00:15:41;;;;;;;0.20;0.20;;;;;;;;;;5068082;28;20199;-65
2021/10/03 00:18:10;;;;;;;0.00;0.00;;;;;;;;;;5067710;28;20618;-65
2021/10/03 00:20:39;;;;;;;0.00;0.00;;;;;;;;;;5066308;28;20213;-65
2021/10/03 00:23:06;;;;;;;0.07;0.07;;;;;;;;;;5067416;28;20207;-65
2021/10/03 00:25:36;;;;;;;0.20;0.10;;;;;;;;;;5071145;28;20229;-65
2021/10/03 00:28:06;;;;;;;0.00;0.00;;;;;;;;;;5065837;28;20215;-65
2021/10/03 00:30:34;;;;;;;0.00;0.00;;;;;;;;;;5067599;28;20579;-65
2021/10/03 00:33:02;;;;;;;0.00;0.00;;;;;;;;;;5065214;28;20202;-66
2021/10/03 00:35:29;;;;;;;0.00;0.00;;;;;;;;;;5068523;28;20252;-65
2021/10/03 00:37:59;;;;;;;0.00;0.00;;;;;;;;;;5069330;28;20581;-66
2021/10/03 00:40:28;;;;;;;0.10;0.10;;;;;;;;;;5068542;28;20209;-66
2021/10/03 00:42:57;;;;;;;0.33;0.33;;;;;;;;;;5066353;28;20207;-67
2021/10/03 00:45:25;;;;;;;0.00;0.00;;;;;;;;;;5068788;28;20230;-66
2021/10/03 00:47:52;;;;;;;0.00;0.00;;;;;;;;;;5065732;28;20670;-68
2021/10/03 00:50:19;;;;;;;0.00;0.00;;;;;;;;;;5065511;28;21037;-68
2021/10/03 00:52:48;;;;;;;0.00;0.00;;;;;;;;;;5067207;28;20203;-67
2021/10/03 00:55:17;;;;;;;0.03;0.03;;;;;;;;;;5068304;28;20198;-67
2021/10/03 00:57:46;;;;;;;0.00;0.00;;;;;;;;;;5070011;28;20239;-67
2021/10/03 01:00:16;;;;;;;0.00;0.00;;;;;;;;;;5065462;28;20297;-66
2021/10/03 01:02:44;;;;;;;0.00;0.00;;;;;;;;;;5067193;28;21820;-66
2021/10/03 01:05:12;;;;;;;0.00;0.00;;;;;;;;;;5067635;28;20221;-67
2021/10/03 01:07:40;;;;;;;0.00;0.00;;;;;;;;;;5067246;28;20225;-66
2021/10/03 01:10:08;;;;;;;0.00;0.00;;;;;;;;;;5067966;28;20531;-67
2021/10/03 01:12:36;;;;;;;0.00;0.00;;;;;;;;;;5065647;28;20194;-67
2021/10/03 01:15:05;;;;;;;0.00;0.00;;;;;;;;;;5069488;28;20207;-67
2021/10/03 01:17:33;;;;;;;0.80;0.53;;;;;;;;;;5066516;28;20194;-67
2021/10/03 01:20:01;;;;;;;0.00;0.00;;;;;;;;;;5065327;28;20213;-67
2021/10/03 01:22:30;;;;;;;0.00;0.00;;;;;;;;;;5065444;28;20209;-67
2021/10/03 01:24:59;;;;;;;0.10;0.10;;;;;;;;;;5062966;28;20729;-67
2021/10/03 01:27:26;;;;;;;0.00;0.00;;;;;;;;;;5068935;28;20250;-67
2021/10/03 01:29:54;;;;;;;0.00;0.00;;;;;;;;;;5067869;28;20205;-67
2021/10/03 01:32:21;;;;;;;0.60;0.50;;;;;;;;;;5069180;28;21618;-66
2021/10/03 01:34:49;;;;;;;0.07;0.07;;;;;;;;;;5065534;28;20217;-67
2021/10/03 01:37:16;;;;;;;0.00;0.00;;;;;;;;;;5068882;28;20208;-67
2021/10/03 01:39:45;;;;;;;0.13;0.13;;;;;;;;;;5065136;28;20210;-68
2021/10/03 01:42:12;;;;;;;0.00;0.00;;;;;;;;;;5066110;28;20876;-67
2021/10/03 01:44:40;;;;;;;0.00;0.00;;;;;;;;;;5067063;28;20623;-67
2021/10/03 01:47:07;;;;;;;0.00;0.00;;;;;;;;;;5076914;28;20202;-67
2021/10/03 01:49:35;;;;;;;1.33;1.23;;;;;;;;;;5077577;28;20210;-67
2021/10/03 01:52:02;;;;;;;0.00;0.00;;;;;;;;;;5078998;28;20208;-67
2021/10/03 01:54:30;;;;;;;0.00;0.00;;;;;;;;;;5079417;28;20201;-67
2021/10/03 01:56:59;;;;;;;0.00;0.00;;;;;;;;;;5078666;28;20210;-68
2021/10/03 01:59:26;;;;;;;0.00;0.00;;;;;;;;;;5077339;28;20228;-67
2021/10/03 02:01:54;;;;;;;0.20;0.20;;;;;;;;;;5080704;28;20551;-67
2021/10/03 02:04:24;;;;;;;0.03;0.03;;;;;;;;;;5078246;28;20214;-68
2021/10/03 02:06:52;;;;;;;3.80;0.77;;;;;;;;;;5080322;28;20238;-67
2021/10/03 02:09:22;;;;;;;0.00;0.00;;;;;;;;;;5076271;28;20198;-67
2021/10/03 02:11:50;;;;;;;0.00;0.00;;;;;;;;;;5080272;28;20223;-66
2021/10/03 02:14:20;;;;;;;0.00;0.00;;;;;;;;;;5079635;28;20203;-66
2021/10/03 02:16:48;;;;;;;0.00;0.00;;;;;;;;;;5071545;28;20205;-67
2021/10/03 02:19:15;;;;;;;0.00;0.00;;;;;;;;;;5070474;28;20738;-67
2021/10/03 02:21:43;;;;;;;0.00;0.00;;;;;;;;;;5074761;28;20207;-68
2021/10/03 02:24:11;;;;;;;0.00;0.00;;;;;;;;;;5068174;28;20203;-68
2021/10/03 02:26:38;;;;;;;0.00;0.00;;;;;;;;;;5068692;28;20230;-67
2021/10/03 02:29:07;;;;;;;0.00;0.00;;;;;;;;;;5071341;28;20206;-67
2021/10/03 02:31:36;;;;;;;0.00;0.00;;;;;;;;;;5070005;28;20198;-66
2021/10/03 02:34:03;;;;;;;0.00;0.00;;;;;;;;;;5069758;28;20213;-67
2021/10/03 02:36:31;;;;;;;0.00;0.00;;;;;;;;;;5069818;28;20361;-67
2021/10/03 02:38:58;;;;;;;0.33;0.13;;;;;;;;;;5070311;28;20206;-66
2021/10/03 02:41:26;;;;;;;0.00;0.00;;;;;;;;;;5079034;28;20202;-69
2021/10/03 02:43:55;;;;;;;0.00;0.00;;;;;;;;;;5076222;28;20202;-66
2021/10/03 02:46:23;;;;;;;0.00;0.00;;;;;;;;;;5078277;28;20231;-67
2021/10/03 02:48:52;;;;;;;0.03;0.03;;;;;;;;;;5075967;28;20205;-68
2021/10/03 02:51:20;;;;;;;0.00;0.00;;;;;;;;;;5075752;28;20547;-66
2021/10/03 02:53:48;;;;;;;0.00;0.00;;;;;;;;;;5078352;28;20214;-66
2021/10/03 02:56:16;;;;;;;0.00;0.00;;;;;;;;;;5078818;28;20217;-67
2021/10/03 02:58:44;;;;;;;0.00;0.00;;;;;;;;;;5078356;28;20694;-67
2021/10/03 03:01:11;;;;;;;0.00;0.00;;;;;;;;;;5068427;28;20903;-70
2021/10/03 03:03:39;;;;;;;0.00;0.00;;;;;;;;;;5072046;28;20214;-68
2021/10/03 03:06:08;;;;;;;0.00;0.00;;;;;;;;;;5072652;28;20590;-67
2021/10/03 03:08:35;;;;;;;0.00;0.00;;;;;;;;;;5068780;28;20206;-67
2021/10/03 03:11:03;;;;;;;0.00;0.00;;;;;;;;;;5069809;28;20206;-68
2021/10/03 03:13:30;;;;;;;0.00;0.00;;;;;;;;;;5069703;28;20216;-69
2021/10/03 03:15:59;;;;;;;0.00;0.00;;;;;;;;;;5069777;28;20550;-69
2021/10/03 03:18:27;;;;;;;0.00;0.00;;;;;;;;;;5072540;28;20198;-69
2021/10/03 03:20:54;;;;;;;0.00;0.00;;;;;;;;;;5067177;28;20195;-69
2021/10/03 03:23:23;;;;;;;0.00;0.00;;;;;;;;;;5067521;28;20210;-68
2021/10/03 03:25:50;;;;;;;0.00;0.00;;;;;;;;;;5068555;28;20237;-69
2021/10/03 03:28:19;;;;;;;0.00;0.00;;;;;;;;;;5071455;28;20208;-67
2021/10/03 03:30:46;;;;;;;0.00;0.00;;;;;;;;;;5068339;28;20217;-68
2021/10/03 03:33:15;;;;;;;0.00;0.00;;;;;;;;;;5068485;28;20206;-68
2021/10/03 03:35:43;;;;;;;0.00;0.00;;;;;;;;;;5069761;28;21213;-68
2021/10/03 03:38:10;;;;;;;0.00;0.00;;;;;;;;;;5067162;28;20778;-67
2021/10/03 03:40:39;;;;;;;0.00;0.00;;;;;;;;;;5069381;28;20240;-70
2021/10/03 03:43:07;;;;;;;0.00;0.00;;;;;;;;;;5067183;28;20206;-67
2021/10/03 03:45:34;;;;;;;0.00;0.00;;;;;;;;;;5067732;28;20210;-68
2021/10/03 03:48:02;;;;;;;0.00;0.00;;;;;;;;;;5066978;28;20588;-68
2021/10/03 03:50:30;;;;;;;0.00;0.00;;;;;;;;;;5069787;28;20308;-68
2021/10/03 03:52:58;;;;;;;0.00;0.00;;;;;;;;;;5066414;28;20341;-67
2021/10/03 03:55:26;;;;;;;0.00;0.00;;;;;;;;;;5065210;28;20202;-69
2021/10/03 03:57:54;;;;;;;0.00;0.00;;;;;;;;;;5068162;28;20561;-67
2021/10/03 04:00:22;;;;;;;0.00;0.00;;;;;;;;;;5068713;28;20711;-68
2021/10/03 04:02:49;;;;;;;0.00;0.00;;;;;;;;;;5069692;28;21390;-68
2021/10/03 04:05:17;;;;;;;0.00;0.00;;;;;;;;;;5065197;28;21097;-68
2021/10/03 04:07:44;;;;;;;0.00;0.00;;;;;;;;;;5069387;28;20222;-68
2021/10/03 04:10:11;;;;;;;0.00;0.00;;;;;;;;;;5064013;28;20201;-68
2021/10/03 04:12:39;;;;;;;0.00;0.00;;;;;;;;;;5063086;28;20206;-68
2021/10/03 04:15:08;;;;;;;0.00;0.00;;;;;;;;;;5063171;28;20201;-68
2021/10/03 04:17:36;;;;;;;0.00;0.00;;;;;;;;;;5065557;28;20684;-68
2021/10/03 04:20:04;;;;;;;0.00;0.00;;;;;;;;;;5063900;28;20204;-69
2021/10/03 04:22:31;;;;;;;0.00;0.00;;;;;;;;;;5072577;28;20203;-68
2021/10/03 04:24:59;;;;;;;0.00;0.00;;;;;;;;;;5073358;28;20198;-68
2021/10/03 04:27:26;;;;;;;0.00;0.00;;;;;;;;;;5072791;28;20218;-68
2021/10/03 04:29:53;;;;;;;0.00;0.00;;;;;;;;;;5073071;28;20218;-69
2021/10/03 04:32:22;;;;;;;0.00;0.00;;;;;;;;;;5075498;28;20310;-68
2021/10/03 04:34:50;;;;;;;0.00;0.00;;;;;;;;;;5071811;28;20222;-70
2021/10/03 04:37:17;;;;;;;0.00;0.00;;;;;;;;;;5083464;28;20675;-68
2021/10/03 04:39:44;;;;;;;0.00;0.00;;;;;;;;;;5088438;28;20623;-68
2021/10/03 04:42:12;;;;;;;0.00;0.00;;;;;;;;;;5085158;28;20655;-68
2021/10/03 04:44:39;;;;;;;0.00;0.00;;;;;;;;;;5090374;28;20194;-67
2021/10/03 04:47:07;;;;;;;0.00;0.00;;;;;;;;;;5089226;28;20595;-68
2021/10/03 04:49:36;;;;;;;0.00;0.00;;;;;;;;;;5088701;28;20203;-67
2021/10/03 04:52:03;;;;;;;0.00;0.00;;;;;;;;;;5073635;28;20217;-67
2021/10/03 04:54:30;;;;;;;0.00;0.00;;;;;;;;;;5074855;28;20204;-67
2021/10/03 04:56:58;;;;;;;0.00;0.00;;;;;;;;;;5071407;28;20203;-67
2021/10/03 04:59:25;;;;;;;0.00;0.00;;;;;;;;;;5075633;28;20201;-68
2021/10/03 05:01:53;;;;;;;0.00;0.00;;;;;;;;;;5073891;28;20203;-68
2021/10/03 05:04:20;;;;;;;0.00;0.00;;;;;;;;;;5074925;28;20206;-68
2021/10/03 05:06:49;;;;;;;0.00;0.00;;;;;;;;;;5072467;28;20606;-69
2021/10/03 05:09:16;;;;;;;0.00;0.00;;;;;;;;;;5075126;28;20206;-68
2021/10/03 05:11:44;;;;;;;0.00;0.00;;;;;;;;;;5072487;28;20660;-68
2021/10/03 05:14:11;;;;;;;0.00;0.00;;;;;;;;;;5074445;28;20207;-70
2021/10/03 05:16:39;;;;;;;0.00;0.00;;;;;;;;;;5075448;28;20202;-70
2021/10/03 05:19:06;;;;;;;0.00;0.00;;;;;;;;;;5074846;28;20213;-68
2021/10/03 05:21:34;;;;;;;0.00;0.00;;;;;;;;;;5073221;28;20205;-67
2021/10/03 05:24:03;;;;;;;0.00;0.00;;;;;;;;;;5071896;28;20206;-68
2021/10/03 05:26:30;;;;;;;0.10;0.10;;;;;;;;;;5075071;28;20240;-67
2021/10/03 05:28:58;;;;;;;0.00;0.00;;;;;;;;;;5074368;28;20198;-67
2021/10/03 05:31:25;;;;;;;0.00;0.00;;;;;;;;;;5070318;28;20199;-68
2021/10/03 05:33:52;;;;;;;0.00;0.00;;;;;;;;;;5071423;28;20214;-67
2021/10/03 05:36:20;;;;;;;0.00;0.00;;;;;;;;;;5072458;28;20205;-68
2021/10/03 05:38:47;;;;;;;0.00;0.00;;;;;;;;;;5074992;28;20199;-67
2021/10/03 05:41:16;;;;;;;0.00;0.00;;;;;;;;;;5071717;28;20560;-67
2021/10/03 05:43:43;;;;;;;0.00;0.00;;;;;;;;;;5072706;28;20675;-68
2021/10/03 05:46:10;;;;;;;0.00;0.00;;;;;;;;;;5072697;28;20234;-68
2021/10/03 05:48:38;;;;;;;0.00;0.00;;;;;;;;;;5075230;28;20203;-68
2021/10/03 05:51:05;;;;;;;0.00;0.00;;;;;;;;;;5075528;28;20739;-71
2021/10/03 05:53:34;;;;;;;0.00;0.00;;;;;;;;;;5075352;28;20213;-69
2021/10/03 05:56:02;;;;;;;0.00;0.00;;;;;;;;;;5074099;28;20202;-69
2021/10/03 05:58:31;;;;;;;0.00;0.00;;;;;;;;;;5075982;28;20214;-69
2021/10/03 06:00:58;;;;;;;0.00;0.00;;;;;;;;;;5071768;28;20263;-71
2021/10/03 06:03:25;;;;;;;0.00;0.00;;;;;;;;;;5071088;28;20199;-67
2021/10/03 06:05:53;;;;;;;0.00;0.00;;;;;;;;;;5073102;28;20301;-69
2021/10/03 06:08:20;;;;;;;0.00;0.00;;;;;;;;;;5071638;28;20671;-68
2021/10/03 06:10:47;;;;;;;0.00;0.00;;;;;;;;;;5076147;28;20213;-68
2021/10/03 06:13:15;;;;;;;0.00;0.00;;;;;;;;;;5071777;28;20207;-67
2021/10/03 06:15:45;;;;;;;0.00;0.00;;;;;;;;;;5074757;28;20627;-67
2021/10/03 06:18:12;;;;;;;0.00;0.00;;;;;;;;;;5074618;28;20202;-69
2021/10/03 06:20:39;;;;;;;0.00;0.00;;;;;;;;;;5073832;28;20210;-68
2021/10/03 06:23:08;;;;;;;0.00;0.00;;;;;;;;;;5075363;28;20712;-68
2021/10/03 06:25:36;;;;;;;0.00;0.00;;;;;;;;;;5073728;28;20199;-68
2021/10/03 06:28:04;;;;;;;0.00;0.00;;;;;;;;;;5073020;28;20598;-67
2021/10/03 06:30:31;;;;;;;0.00;0.00;;;;;;;;;;5073853;28;20203;-68
2021/10/03 06:33:01;;;;;;;0.00;0.00;;;;;;;;;;5076298;28;20249;-69
2021/10/03 06:35:29;;;;;;;0.00;0.00;;;;;;;;;;5075129;28;20694;-67
2021/10/03 06:37:56;;;;;;;0.00;0.00;;;;;;;;;;5078515;28;20293;-68
2021/10/03 06:40:24;;;;;;;0.00;0.00;;;;;;;;;;5073817;28;20211;-68
2021/10/03 06:42:52;;;;;;;0.00;0.00;;;;;;;;;;5076710;28;20198;-68
2021/10/03 06:45:19;;;;;;;0.00;0.00;;;;;;;;;;5074952;28;20606;-68
2021/10/03 06:47:46;;;;;;;0.00;0.00;;;;;;;;;;5074471;28;20741;-67
2021/10/03 06:50:17;;;;;;;0.20;0.20;;;;;;;;;;5076462;28;20194;-69
2021/10/03 06:52:44;;;;;;;0.00;0.00;;;;;;;;;;5080944;28;20238;-70
2021/10/03 06:55:11;;;;;;;0.00;0.00;;;;;;;;;;5076583;28;20213;-67
2021/10/03 06:57:39;;;;;;;0.00;0.00;;;;;;;;;;5075904;28;20207;-68
2021/10/03 07:00:08;;;;;;;0.00;0.00;;;;;;;;;;5084329;28;20205;-68
2021/10/03 07:02:36;;;;;;;0.00;0.00;;;;;;;;;;5089692;28;20203;-67
2021/10/03 07:05:03;;;;;;;0.00;0.00;;;;;;;;;;5089531;28;20212;-67
2021/10/03 07:07:32;;;;;;;0.00;0.00;;;;;;;;;;5090568;28;20905;-67
2021/10/03 07:09:59;;;;;;;0.00;0.00;;;;;;;;;;5091389;28;20202;-67
2021/10/03 07:12:27;;;;;;;0.00;0.00;;;;;;;;;;5094989;28;20583;-67
2021/10/03 07:14:54;;;;;;;0.00;0.00;;;;;;;;;;5091055;28;20551;-67
2021/10/03 07:17:22;;;;;;;0.00;0.00;;;;;;;;;;5082166;28;20621;-67
2021/10/03 07:19:49;;;;;;;0.00;0.00;;;;;;;;;;5085390;28;20659;-67
2021/10/03 07:22:17;;;;;;;0.00;0.00;;;;;;;;;;5089682;28;20206;-67
2021/10/03 07:24:46;;;;;;;0.00;0.00;;;;;;;;;;5089369;28;20595;-67
2021/10/03 07:27:13;;;;;;;0.00;0.00;;;;;;;;;;5091045;28;20218;-67
2021/10/03 07:29:40;;;;;;;0.00;0.00;;;;;;;;;;5092254;28;20664;-66
2021/10/03 07:32:09;;;;;;;0.00;0.00;;;;;;;;;;5086566;28;20209;-66
2021/10/03 07:34:37;;;;;;;0.00;0.00;;;;;;;;;;5078920;28;20215;-68
2021/10/03 07:37:05;;;;;;;0.00;0.00;;;;;;;;;;5077031;28;20206;-66
2021/10/03 07:39:34;;;;;;;0.00;0.00;;;;;;;;;;5088898;28;20202;-66
2021/10/03 07:42:03;;;;;;;0.00;0.00;;;;;;;;;;5079925;28;20237;-67
2021/10/03 07:44:31;;;;;;;0.00;0.00;;;;;;;;;;5075137;28;21077;-69
2021/10/03 07:46:58;;;;;;;0.00;0.00;;;;;;;;;;5092250;28;20229;-67
2021/10/03 07:49:26;;;;;;;0.00;0.00;;;;;;;;;;5088190;28;20230;-68
2021/10/03 07:51:53;;;;;;;0.00;0.00;;;;;;;;;;5077204;28;20570;-66
2021/10/03 07:54:21;;;;;;;0.00;0.00;;;;;;;;;;5086980;28;20202;-67
2021/10/03 07:56:48;;;;;;;0.00;0.00;;;;;;;;;;5088745;28;20209;-67
2021/10/03 07:59:17;;;;;;;0.00;0.00;;;;;;;;;;5082594;28;20202;-66
2021/10/03 08:01:44;;;;;;;0.00;0.00;;;;;;;;;;5090639;28;20221;-67
2021/10/03 08:04:12;;;;;;;0.00;0.00;;;;;;;;;;5087506;28;20220;-68
2021/10/03 08:06:39;;;;;;;0.00;0.00;;;;;;;;;;5088557;28;20246;-67
2021/10/03 08:09:07;;;;;;;0.00;0.00;;;;;;;;;;5080241;28;20198;-67
2021/10/03 08:11:34;;;;;;;0.00;0.00;;;;;;;;;;5085920;28;20201;-67
2021/10/03 08:14:01;;;;;;;0.00;0.00;;;;;;;;;;5087800;28;20194;-67
2021/10/03 08:16:31;;;;;;;0.00;0.00;;;;;;;;;;5090976;28;20214;-70
2021/10/03 08:18:58;;;;;;;0.00;0.00;;;;;;;;;;5085049;28;20202;-66
2021/10/03 08:21:26;;;;;;;0.00;0.00;;;;;;;;;;5089160;28;20252;-66
2021/10/03 08:23:54;;;;;;;0.00;0.00;;;;;;;;;;5088486;28;20225;-67
2021/10/03 08:26:21;;;;;;;0.00;0.00;;;;;;;;;;5082296;28;20664;-67
2021/10/03 08:28:49;;;;;;;0.00;0.00;;;;;;;;;;5083715;28;20582;-69
2021/10/03 08:31:16;;;;;;;0.00;0.00;;;;;;;;;;5088365;28;20206;-67
2021/10/03 08:33:45;;;;;;;0.00;0.00;;;;;;;;;;5085947;28;20572;-66
2021/10/03 08:36:12;;;;;;;0.00;0.00;;;;;;;;;;5089524;28;20202;-67
2021/10/03 08:38:40;;;;;;;0.00;0.00;;;;;;;;;;5085651;28;20212;-67
2021/10/03 08:41:07;;;;;;;0.00;0.00;;;;;;;;;;5089444;28;20210;-66
2021/10/03 08:43:36;;;;;;;0.00;0.00;;;;;;;;;;5087561;28;20220;-67
2021/10/03 08:46:05;;;;;;;0.00;0.00;;;;;;;;;;5083658;28;20202;-67
2021/10/03 08:48:32;;;;;;;0.00;0.00;;;;;;;;;;5085739;28;20224;-67
2021/10/03 08:51:01;;;;;;;0.00;0.00;;;;;;;;;;5089881;28;20706;-67
2021/10/03 08:53:29;;;;;;;0.00;0.00;;;;;;;;;;5085922;28;20211;-67
2021/10/03 08:55:58;;;;;;;0.00;0.00;;;;;;;;;;5089186;28;20202;-67
2021/10/03 08:58:25;;;;;;;0.00;0.00;;;;;;;;;;5090059;28;20212;-67
2021/10/03 09:00:53;;;;;;;0.00;0.00;;;;;;;;;;5090188;28;20214;-68
2021/10/03 09:03:21;;;;;;;0.00;0.00;;;;;;;;;;5085950;28;20199;-67
2021/10/03 09:05:49;;;;;;;0.00;0.00;;;;;;;;;;5088274;28;20217;-67
2021/10/03 09:08:19;;;;;;;0.00;0.00;;;;;;;;;;5086290;28;20683;-68
2021/10/03 09:10:52;;;;;;;0.00;0.00;;;;;;;;;;5084934;28;20200;-68
2021/10/03 09:13:20;;;;;;;0.00;0.00;;;;;;;;;;5085209;28;20211;-67
2021/10/03 09:15:48;;;;;;;0.00;0.00;;;;;;;;;;5086658;28;20210;-67
2021/10/03 09:18:21;;;;;;;0.00;0.00;;;;;;;;;;5086312;28;20209;-68
2021/10/03 09:20:48;;;;;;;0.00;0.00;;;;;;;;;;5090186;28;20201;-67
2021/10/03 09:23:18;;;;;;;0.00;0.00;;;;;;;;;;5085037;28;20209;-69
2021/10/03 09:25:47;;;;;;;0.00;0.00;;;;;;;;;;5086242;28;20206;-67
2021/10/03 09:28:16;;;;;;;0.00;0.00;;;;;;;;;;5082951;28;20226;-68
2021/10/03 09:30:54;;;;;;;0.00;0.00;;;;;;;;;;5090658;28;20201;-67
2021/10/03 09:33:21;;;;;;;0.00;0.00;;;;;;;;;;5083861;28;20229;-67
2021/10/03 09:35:58;;;;;;;0.00;0.00;;;;;;;;;;5086960;28;20568;-68
2021/10/03 09:38:28;;;;;;;0.00;0.00;;;;;;;;;;5084929;28;20201;-69
2021/10/03 09:41:03;;;;;;;0.00;0.00;;;;;;;;;;5090277;28;20193;-68
2021/10/03 09:43:49;;;;;;;0.00;0.00;;;;;;;;;;5084172;28;20220;-68
2021/10/03 09:46:35;;;;;;;0.00;0.00;;;;;;;;;;5082250;28;20199;-71
2021/10/03 09:49:05;;;;;;;0.00;0.00;;;;;;;;;;5091814;28;20214;-68
2021/10/03 09:51:33;;;;;;;0.00;0.00;;;;;;;;;;5099047;28;20210;-67
2021/10/03 09:54:03;;;;;;;0.00;0.00;;;;;;;;;;5084723;28;20187;-66
2021/10/03 09:56:32;;;;;;;0.00;0.00;;;;;;;;;;5091262;28;20205;-67
2021/10/03 09:59:01;;;;;;;0.00;0.00;;;;;;;;;;5079381;28;20260;-67
2021/10/03 10:01:32;;;;;;;0.00;0.00;;;;;;;;;;5084202;28;20212;-69
2021/10/03 10:03:59;;;;;;;0.00;0.00;;;;;;;;;;5081116;28;20278;-68
2021/10/03 10:06:26;;;;;;;0.00;0.00;;;;;;;;;;5088917;28;20230;-70
2021/10/03 10:08:56;;;;;;;0.00;0.00;;;;;;;;;;5091860;28;20222;-67
2021/10/03 10:11:34;;;;;;;0.00;0.00;;;;;;;;;;5090398;28;20654;-66
2021/10/03 10:14:03;;;;;;;0.00;0.00;;;;;;;;;;5089959;28;20202;-68
2021/10/03 10:16:31;;;;;;;0.00;0.00;;;;;;;;;;5085879;28;20198;-67
2021/10/03 10:19:14;;;;;;;0.00;0.00;;;;;;;;;;5081760;28;20213;-67
2021/10/03 10:21:41;;;;;;;0.00;0.00;;;;;;;;;;5082498;28;20202;-69
2021/10/03 10:24:23;;;;;;;0.00;0.00;;;;;;;;;;5088636;28;20205;-67
2021/10/03 10:26:52;;;;;;;0.00;0.00;;;;;;;;;;5076958;28;20206;-67
2021/10/03 10:29:34;;;;;;;0.00;0.00;;;;;;;;;;5077555;28;20234;-69
2021/10/03 10:32:09;;;;;;;0.00;0.00;;;;;;;;;;5091230;28;20194;-68
2021/10/03 10:35:06;;;;;;;0.00;0.00;;;;;;;;;;5089365;28;20220;-67
2021/10/03 10:37:48;;;;;;;0.00;0.00;;;;;;;;;;5088521;28;20551;-68
2021/10/03 10:40:27;;;;;;;0.00;0.00;;;;;;;;;;5077785;28;20199;-66
2021/10/03 10:42:57;;;;;;;0.00;0.00;;;;;;;;;;5092351;28;20198;-67
2021/10/03 10:45:40;;;;;;;0.00;0.00;;;;;;;;;;5088171;28;20202;-67
2021/10/03 10:48:17;;;;;;;0.00;0.00;;;;;;;;;;5089098;28;20238;-67
2021/10/03 10:50:59;;;;;;;0.00;0.00;;;;;;;;;;5091169;28;20202;-68
2021/10/03 10:53:28;;;;;;;0.00;0.00;;;;;;;;;;5090833;28;20198;-67
2021/10/03 10:56:01;;;;;;;0.00;0.00;;;;;;;;;;5084572;28;20198;-68
2021/10/03 10:58:30;;;;;;;0.00;0.00;;;;;;;;;;5090527;28;20217;-70
2021/10/03 11:01:15;;;;;;;0.00;0.00;;;;;;;;;;5091156;28;20198;-69
2021/10/03 11:04:03;;;;;;;0.00;0.00;;;;;;;;;;5086176;28;20259;-69
2021/10/03 11:07:01;;;;;;;0.00;0.00;;;;;;;;;;5089586;28;20238;-69
2021/10/03 11:09:30;;;;;;;0.00;0.00;;;;;;;;;;5084938;28;20650;-69
2021/10/03 11:11:59;;;;;;;0.00;0.00;;;;;;;;;;5089242;28;20197;-69
2021/10/03 11:14:29;;;;;;;0.00;0.00;;;;;;;;;;5085825;28;20206;-69
2021/10/03 11:17:00;;;;;;;0.00;0.00;;;;;;;;;;5093968;28;20202;-68
2021/10/03 11:19:34;;;;;;;0.00;0.00;;;;;;;;;;5077100;28;20201;-69
2021/10/03 11:22:02;;;;;;;0.00;0.00;;;;;;;;;;5087482;28;20212;-68
2021/10/03 11:24:31;;;;;;;0.00;0.00;;;;;;;;;;5081268;28;20228;-70
2021/10/03 11:26:59;;;;;;;0.00;0.00;;;;;;;;;;5091011;28;20209;-68
2021/10/03 11:29:29;;;;;;;0.00;0.00;;;;;;;;;;5087173;28;20218;-69
2021/10/03 11:31:57;;;;;;;0.20;0.10;;;;;;;;;;5089668;28;20213;-69
2021/10/03 11:34:28;;;;;;;0.00;0.00;;;;;;;;;;5079608;28;20203;-68
2021/10/03 11:36:56;;;;;;;0.00;0.00;;;;;;;;;;5088997;28;20212;-68
2021/10/03 11:39:41;;;;;;;0.00;0.00;;;;;;;;;;5081452;28;20209;-67
2021/10/03 11:42:09;;;;;;;0.00;0.00;;;;;;;;;;5086490;28;20198;-68
2021/10/03 11:44:39;;;;;;;0.00;0.00;;;;;;;;;;5078007;28;20199;-67
2021/10/03 11:47:07;;;;;;;0.00;0.00;;;;;;;;;;5088174;28;20195;-67
2021/10/03 11:49:36;;;;;;;0.20;0.20;;;;;;;;;;5088784;28;20309;-67
2021/10/03 11:52:04;;;;;;;0.00;0.00;;;;;;;;;;5092376;28;20205;-67
2021/10/03 11:54:32;;;;;;;0.00;0.00;;;;;;;;;;5087196;28;20678;-68
2021/10/03 11:57:13;;;;;;;0.00;0.00;;;;;;;;;;5091439;28;20202;-67
2021/10/03 11:59:42;;;;;;;0.00;0.00;;;;;;;;;;5085889;28;20217;-67
2021/10/03 12:02:12;;;;;;;0.00;0.00;;;;;;;;;;5092271;28;20268;-67
2021/10/03 12:04:53;;;;;;;0.00;0.00;;;;;;;;;;5076084;28;20213;-67
2021/10/03 12:07:21;;;;;;;0.00;0.00;;;;;;;;;;5085579;28;20232;-66
2021/10/03 12:09:59;;;;;;;0.00;0.00;;;;;;;;;;5085318;28;20230;-66
2021/10/03 12:12:56;;;;;;;0.10;0.10;;;;;;;;;;5088296;28;20214;-67
2021/10/03 12:15:42;;;;;;;0.00;0.00;;;;;;;;;;5045413;28;20207;-69
2021/10/03 12:18:11;;;;;;;0.00;0.00;;;;;;;;;;5077709;28;20198;-67
2021/10/03 12:20:53;;;;;;;0.00;0.00;;;;;;;;;;5085449;28;20247;-66
2021/10/03 12:23:21;;;;;;;0.00;0.00;;;;;;;;;;5083533;28;20660;-66
2021/10/03 12:25:50;;;;;;;0.00;0.00;;;;;;;;;;5084784;28;20238;-67
2021/10/03 12:28:18;;;;;;;0.00;0.00;;;;;;;;;;5088615;28;20222;-69
2021/10/03 12:30:49;;;;;;;0.00;0.00;;;;;;;;;;5087484;28;20198;-66
2021/10/03 12:33:17;;;;;;;0.00;0.00;;;;;;;;;;5088150;28;20739;-66
2021/10/03 12:36:00;;;;;;;0.00;0.00;;;;;;;;;;5088811;28;20762;-67
2021/10/03 12:38:27;;;;;;;0.00;0.00;;;;;;;;;;5074809;28;20198;-66
2021/10/03 12:40:55;;;;;;;0.00;0.00;;;;;;;;;;5089738;28;20642;-67
2021/10/03 12:43:23;;;;;;;0.00;0.00;;;;;;;;;;5085128;28;20734;-66
2021/10/03 12:45:52;;;;;;;0.00;0.00;;;;;;;;;;5079889;28;20235;-67
2021/10/03 12:48:20;;;;;;;0.00;0.00;;;;;;;;;;5090655;28;20253;-67
2021/10/03 12:50:49;;;;;;;0.00;0.00;;;;;;;;;;5087510;28;20291;-67
2021/10/03 12:53:16;;;;;;;0.00;0.00;;;;;;;;;;5089355;28;20326;-66
2021/10/03 12:55:43;;;;;;;0.00;0.00;;;;;;;;;;5090499;28;20234;-66
2021/10/03 12:58:11;;;;;;;0.00;0.00;;;;;;;;;;5101234;28;20278;-66
2021/10/03 13:00:38;;;;;;;0.00;0.00;;;;;;;;;;5078466;28;20285;-66
2021/10/03 13:03:07;;;;;;;0.00;0.00;;;;;;;;;;5088301;28;20205;-66
2021/10/03 13:05:34;;;;;;;0.00;0.00;;;;;;;;;;5087419;28;20578;-68
2021/10/03 13:08:03;;;;;;;0.00;0.00;;;;;;;;;;5090377;28;20202;-66
2021/10/03 13:10:30;;;;;;;0.00;0.00;;;;;;;;;;5088694;28;20586;-67
2021/10/03 13:12:57;;;;;;;0.00;0.00;;;;;;;;;;5088417;28;20202;-66
2021/10/03 13:15:25;;;;;;;0.00;0.00;;;;;;;;;;5080734;28;20203;-66
2021/10/03 13:17:52;;;;;;;0.00;0.00;;;;;;;;;;5089243;28;20241;-68
2021/10/03 13:20:21;;;;;;;0.13;0.10;;;;;;;;;;5087953;28;20229;-66
2021/10/03 13:22:49;;;;;;;0.00;0.00;;;;;;;;;;5088521;28;20203;-66
2021/10/03 13:25:16;;;;;;;0.00;0.00;;;;;;;;;;5081280;28;20199;-66
2021/10/03 13:27:45;;;;;;;0.10;0.10;;;;;;;;;;5089605;28;20209;-66
2021/10/03 13:30:14;;;;;;;0.10;0.10;;;;;;;;;;5085374;28;20227;-66
2021/10/03 13:32:42;;;;;;;0.00;0.00;;;;;;;;;;5082121;28;20229;-68
2021/10/03 13:35:10;;;;;;;0.00;0.00;;;;;;;;;;5089608;28;20207;-66
2021/10/03 13:37:39;;;;;;;0.00;0.00;;;;;;;;;;5082205;28;20202;-66
2021/10/03 13:40:08;;;;;;;0.00;0.00;;;;;;;;;;5081941;28;20194;-66
2021/10/03 13:42:35;;;;;;;0.00;0.00;;;;;;;;;;5077940;28;20266;-66
2021/10/03 13:45:02;;;;;;;0.00;0.00;;;;;;;;;;5084318;28;20201;-66
2021/10/03 13:47:30;;;;;;;0.10;0.10;;;;;;;;;;5093934;28;20699;-65
2021/10/03 13:49:57;;;;;;;1.00;0.30;;;;;;;;;;5087174;28;20287;-67
2021/10/03 13:52:25;;;;;;;0.00;0.00;;;;;;;;;;5085887;28;20206;-66
2021/10/03 13:54:54;;;;;;;0.37;0.30;;;;;;;;;;5077473;28;20213;-66
2021/10/03 13:57:22;;;;;;;0.00;0.00;;;;;;;;;;5079831;28;20213;-66
2021/10/03 13:59:49;;;;;;;0.00;0.00;;;;;;;;;;5090750;28;20267;-65
2021/10/03 14:02:17;;;;;;;0.00;0.00;;;;;;;;;;5088878;28;20289;-66
2021/10/03 14:04:44;;;;;;;0.00;0.00;;;;;;;;;;5083531;28;20195;-67
2021/10/03 14:07:12;;;;;;;0.00;0.00;;;;;;;;;;5089810;28;20230;-66
2021/10/03 14:09:39;;;;;;;0.00;0.00;;;;;;;;;;5088429;28;20707;-66
2021/10/03 14:12:08;;;;;;;0.07;0.07;;;;;;;;;;5083038;28;20695;-66
2021/10/03 14:14:36;;;;;;;0.63;0.20;;;;;;;;;;5087219;28;20274;-66
2021/10/03 14:17:03;;;;;;;0.00;0.00;;;;;;;;;;5090959;28;20200;-66
2021/10/03 14:19:31;;;;;;;0.03;0.03;;;;;;;;;;5087793;28;20211;-66
2021/10/03 14:21:58;;;;;;;0.10;0.10;;;;;;;;;;5082954;28;20581;-65
2021/10/03 14:24:29;;;;;;;0.00;0.00;;;;;;;;;;5090125;28;20294;-66
2021/10/03 14:26:58;;;;;;;0.00;0.00;;;;;;;;;;5081901;28;20203;-66
2021/10/03 14:29:27;;;;;;;0.00;0.00;;;;;;;;;;5081949;28;20226;-66
2021/10/03 14:31:54;;;;;;;0.33;0.33;;;;;;;;;;5092069;28;20663;-66
2021/10/03 14:34:22;;;;;;;0.10;0.10;;;;;;;;;;5093614;28;20206;-65
2021/10/03 14:36:49;;;;;;;0.00;0.00;;;;;;;;;;5090825;28;20233;-66
2021/10/03 14:39:22;;;;;;;0.00;0.00;;;;;;;;;;5083997;28;20605;-66
2021/10/03 14:41:52;;;;;;;0.00;0.00;;;;;;;;;;5092398;28;20217;-65
2021/10/03 14:44:25;;;;;;;0.00;0.00;;;;;;;;;;5086694;28;20194;-64
2021/10/03 14:47:01;;;;;;;0.00;0.00;;;;;;;;;;5091141;28;20552;-64
2021/10/03 14:49:33;;;;;;;0.00;0.00;;;;;;;;;;5090314;28;20217;-64
2021/10/03 14:52:01;;;;;;;0.00;0.00;;;;;;;;;;5091011;28;20194;-63
2021/10/03 14:54:29;;;;;;;0.00;0.00;;;;;;;;;;5082465;28;20656;-63